Time;durP1;ratioP1;P1;durP2;ratioP2;P2;SDS_P1;SDS_P2;PMS_P1;PMS_P2;Temp;Humidity;BMP_temperature;BMP_pressure;BME280_temperature;BME280_humidity;BME280_pressure;Samples;Min_cycle;Max_cycle;Signal;HPM_P1;HPM_P2
2023/06/07 00:01:08;;;;;;;14.83;10.70;;;13.50;99.90;;;;;;5034860;28;21042;-72
2023/06/07 00:03:38;;;;;;;16.90;11.97;;;13.50;99.90;;;;;;5034689;28;20537;-72
2023/06/07 00:06:08;;;;;;;17.73;11.60;;;13.40;99.90;;;;;;5034510;28;20923;-72
2023/06/07 00:08:39;;;;;;;11.77;9.87;;;13.40;99.90;;;;;;5034461;28;20466;-71
2023/06/07 00:11:07;;;;;;;18.20;12.90;;;13.30;99.90;;;;;;5035148;28;20501;-72
2023/06/07 00:13:39;;;;;;;12.97;11.37;;;13.30;99.90;;;;;;5033758;28;20467;-72
2023/06/07 00:16:07;;;;;;;14.93;11.60;;;13.20;99.90;;;;;;5034080;28;20398;-72
2023/06/07 00:18:36;;;;;;;15.50;12.17;;;13.20;99.90;;;;;;5034734;28;20435;-71
2023/06/07 00:21:04;;;;;;;16.47;11.73;;;13.20;99.90;;;;;;5035838;28;20457;-72
2023/06/07 00:23:33;;;;;;;18.03;11.87;;;13.10;99.90;;;;;;5040257;28;20442;-72
2023/06/07 00:26:01;;;;;;;17.23;10.77;;;13.10;99.90;;;;;;5039445;28;20451;-72
2023/06/07 00:28:29;;;;;;;15.40;11.60;;;13.10;99.90;;;;;;5038454;28;20466;-72
2023/06/07 00:30:59;;;;;;;23.00;12.10;;;13.10;99.90;;;;;;5037289;28;20443;-72
2023/06/07 00:33:27;;;;;;;15.20;10.87;;;13.00;99.90;;;;;;5034833;28;20454;-72
2023/06/07 00:35:55;;;;;;;14.90;11.20;;;13.00;99.90;;;;;;5040946;28;20443;-72
2023/06/07 00:38:24;;;;;;;17.13;12.23;;;13.00;99.90;;;;;;5039434;28;20442;-72
2023/06/07 00:40:52;;;;;;;15.67;11.80;;;13.00;99.90;;;;;;5033704;28;20447;-72
2023/06/07 00:43:20;;;;;;;14.73;11.30;;;13.00;99.90;;;;;;5034108;28;20442;-72
2023/06/07 00:45:49;;;;;;;13.67;10.07;;;13.00;99.90;;;;;;5035959;28;20475;-71
2023/06/07 00:48:18;;;;;;;15.60;11.27;;;13.00;99.90;;;;;;5037958;28;20576;-72
2023/06/07 00:50:47;;;;;;;18.40;12.20;;;13.00;99.90;;;;;;5037835;28;20621;-72
2023/06/07 00:53:17;;;;;;;17.60;11.67;;;13.00;99.90;;;;;;5034343;28;20443;-72
2023/06/07 00:55:46;;;;;;;15.93;11.50;;;13.00;99.90;;;;;;5034034;28;20435;-72
2023/06/07 00:58:15;;;;;;;17.87;12.47;;;13.00;99.90;;;;;;5034385;28;20466;-71
2023/06/07 01:00:43;;;;;;;17.57;11.97;;;12.90;99.90;;;;;;5032289;28;20442;-72
2023/06/07 01:03:12;;;;;;;16.77;12.10;;;12.90;99.90;;;;;;5032544;28;20454;-71
2023/06/07 01:05:44;;;;;;;18.10;12.43;;;12.90;99.90;;;;;;5032575;28;20453;-71
2023/06/07 01:08:13;;;;;;;18.33;12.40;;;12.90;99.90;;;;;;5032235;28;20474;-72
2023/06/07 01:10:41;;;;;;;14.70;11.87;;;12.90;99.90;;;;;;5033974;28;20792;-72
2023/06/07 01:13:10;;;;;;;17.23;12.20;;;12.90;99.90;;;;;;5034142;28;20522;-72
2023/06/07 01:15:39;;;;;;;21.67;12.60;;;12.90;99.90;;;;;;5032274;28;20475;-72
2023/06/07 01:18:09;;;;;;;21.40;14.03;;;12.90;99.90;;;;;;5032715;28;20469;-72
2023/06/07 01:20:39;;;;;;;14.80;11.83;;;12.80;99.90;;;;;;5033889;28;20470;-72
2023/06/07 01:23:12;;;;;;;18.00;12.20;;;12.80;99.90;;;;;;5032234;28;20454;-72
2023/06/07 01:25:42;;;;;;;15.83;12.20;;;12.80;99.90;;;;;;5031817;28;20842;-71
2023/06/07 01:28:10;;;;;;;17.90;13.27;;;12.80;99.90;;;;;;5031698;28;20557;-72
2023/06/07 01:30:40;;;;;;;19.70;12.63;;;12.80;99.90;;;;;;5032003;28;20555;-72
2023/06/07 01:33:09;;;;;;;15.50;12.20;;;12.70;99.90;;;;;;5033295;28;20799;-71
2023/06/07 01:35:40;;;;;;;19.53;13.80;;;12.70;99.90;;;;;;5032042;28;20450;-72
2023/06/07 01:38:08;;;;;;;17.20;14.43;;;12.70;99.90;;;;;;5033166;28;20820;-72
2023/06/07 01:40:38;;;;;;;17.90;12.93;;;12.60;99.90;;;;;;5032107;28;20450;-72
2023/06/07 01:43:09;;;;;;;16.93;13.47;;;12.60;99.90;;;;;;5033094;28;20514;-72
2023/06/07 01:45:38;;;;;;;17.60;14.13;;;12.60;99.90;;;;;;5033921;28;20450;-73
2023/06/07 01:48:06;;;;;;;19.27;14.27;;;12.60;99.90;;;;;;5034642;28;20459;-72
2023/06/07 01:50:34;;;;;;;17.30;15.50;;;12.50;99.90;;;;;;5034818;28;20466;-71
2023/06/07 01:53:02;;;;;;;22.57;15.30;;;12.50;99.90;;;;;;5032051;28;20449;-72
2023/06/07 01:55:31;;;;;;;21.30;15.37;;;12.50;99.90;;;;;;5031745;28;20566;-72
2023/06/07 01:58:13;;;;;;;18.30;15.40;;;12.40;99.90;;;;;;5031779;28;20991;-72
2023/06/07 02:00:52;;;;;;;18.80;15.90;;;12.40;99.90;;;;;;5031689;28;20446;-72
2023/06/07 02:03:27;;;;;;;20.73;14.73;;;12.40;99.90;;;;;;5031652;28;20518;-71
2023/06/07 02:06:00;;;;;;;23.43;15.10;;;12.30;99.90;;;;;;5032960;28;20768;-72
2023/06/07 02:08:31;;;;;;;23.00;14.83;;;12.30;99.90;;;;;;5033263;28;20423;-71
2023/06/07 02:11:01;;;;;;;18.50;15.67;;;12.30;99.90;;;;;;5031471;28;20484;-71
2023/06/07 02:13:34;;;;;;;16.87;14.90;;;12.30;99.90;;;;;;5031466;28;20489;-71
2023/06/07 02:16:04;;;;;;;18.63;15.13;;;12.30;99.90;;;;;;5032652;28;20419;-71
2023/06/07 02:18:37;;;;;;;17.07;13.70;;;12.30;99.90;;;;;;5031351;28;20478;-71
2023/06/07 02:21:05;;;;;;;21.73;15.30;;;12.30;99.90;;;;;;5032550;28;20451;-71
2023/06/07 02:23:33;;;;;;;16.23;13.20;;;12.30;99.90;;;;;;5031361;28;20537;-72
2023/06/07 02:26:02;;;;;;;19.97;16.27;;;12.30;99.90;;;;;;5033267;28;20434;-72
2023/06/07 02:28:31;;;;;;;21.10;15.40;;;12.20;99.90;;;;;;5031278;28;20509;-72
2023/06/07 02:31:01;;;;;;;20.20;15.87;;;12.20;99.90;;;;;;5033254;28;20570;-71
2023/06/07 02:33:29;;;;;;;19.37;15.60;;;12.20;99.90;;;;;;5032860;28;20905;-72
2023/06/07 02:35:58;;;;;;;19.60;15.67;;;12.20;99.90;;;;;;5031376;28;20443;-72
2023/06/07 02:38:26;;;;;;;18.77;16.10;;;12.10;99.90;;;;;;5032994;28;20443;-72
2023/06/07 02:40:55;;;;;;;19.57;15.80;;;12.10;99.90;;;;;;5034783;28;20542;-71
2023/06/07 02:43:25;;;;;;;19.20;14.67;;;12.10;99.90;;;;;;5034815;28;20497;-72
2023/06/07 02:45:55;;;;;;;20.07;15.27;;;12.00;99.90;;;;;;5034663;28;20454;-72
2023/06/07 02:48:23;;;;;;;20.53;15.90;;;12.00;99.90;;;;;;5034614;28;20826;-72
2023/06/07 02:50:51;;;;;;;21.40;15.73;;;12.00;99.90;;;;;;5034577;28;20478;-72
2023/06/07 02:53:20;;;;;;;21.00;15.53;;;12.00;99.90;;;;;;5034574;28;20481;-72
2023/06/07 02:55:49;;;;;;;20.57;16.37;;;12.00;99.90;;;;;;5034557;28;20447;-72
2023/06/07 02:58:17;;;;;;;21.47;15.77;;;12.00;99.90;;;;;;5034632;28;20470;-71
2023/06/07 03:00:49;;;;;;;20.43;15.60;;;11.90;99.90;;;;;;5035913;28;20431;-71
2023/06/07 03:03:21;;;;;;;21.20;15.60;;;11.90;99.90;;;;;;5034315;28;20538;-71
2023/06/07 03:05:59;;;;;;;19.50;15.10;;;11.90;99.90;;;;;;5033862;28;20500;-71
2023/06/07 03:08:31;;;;;;;17.40;15.50;;;11.90;99.90;;;;;;5034292;28;20443;-71
2023/06/07 03:11:01;;;;;;;24.77;16.17;;;11.90;99.90;;;;;;5034030;28;20481;-72
2023/06/07 03:13:34;;;;;;;19.40;15.77;;;11.90;99.90;;;;;;5034367;28;20431;-71
2023/06/07 03:16:05;;;;;;;20.03;15.90;;;11.80;99.90;;;;;;5035425;28;20782;-71
2023/06/07 03:18:43;;;;;;;20.50;16.50;;;11.80;99.90;;;;;;5035586;28;20444;-71
2023/06/07 03:21:11;;;;;;;18.63;14.87;;;11.80;99.90;;;;;;5036530;28;20450;-71
2023/06/07 03:23:40;;;;;;;20.27;15.33;;;11.80;99.90;;;;;;5035263;28;20940;-72
2023/06/07 03:26:11;;;;;;;18.53;16.00;;;11.80;99.90;;;;;;5035094;28;20455;-72
2023/06/07 03:28:39;;;;;;;21.70;15.50;;;11.70;99.90;;;;;;5035427;28;20451;-72
2023/06/07 03:31:08;;;;;;;20.23;14.43;;;11.60;99.90;;;;;;5034872;28;20832;-72
2023/06/07 03:33:53;;;;;;;17.00;15.03;;;11.70;99.90;;;;;;5036660;28;20463;-71
2023/06/07 03:36:25;;;;;;;20.33;15.40;;;11.70;99.90;;;;;;5034412;28;20463;-72
2023/06/07 03:38:54;;;;;;;18.50;15.13;;;11.70;99.90;;;;;;5034814;28;20439;-72
2023/06/07 03:41:22;;;;;;;22.23;18.03;;;11.70;99.90;;;;;;5035867;28;20948;-71
2023/06/07 03:43:52;;;;;;;20.90;16.00;;;11.70;99.90;;;;;;5034662;28;20459;-71
2023/06/07 03:46:21;;;;;;;16.73;14.63;;;11.70;99.90;;;;;;5035624;28;20467;-71
2023/06/07 03:48:50;;;;;;;16.93;14.27;;;11.70;99.90;;;;;;5039751;28;20443;-71
2023/06/07 03:51:23;;;;;;;21.00;14.80;;;11.70;99.90;;;;;;5037186;28;20463;-71
2023/06/07 03:53:54;;;;;;;19.50;13.63;;;11.60;99.90;;;;;;5036548;28;20482;-71
2023/06/07 03:56:22;;;;;;;17.90;14.20;;;11.60;99.90;;;;;;5036857;28;20565;-71
2023/06/07 03:58:53;;;;;;;18.53;15.07;;;11.60;99.90;;;;;;5035084;28;20447;-71
2023/06/07 04:01:25;;;;;;;15.40;12.90;;;11.60;99.90;;;;;;5035744;28;20522;-72
2023/06/07 04:03:55;;;;;;;19.30;13.63;;;11.60;99.90;;;;;;5035575;28;20972;-71
2023/06/07 04:06:25;;;;;;;20.07;13.63;;;11.70;99.90;;;;;;5034085;28;20996;-71
2023/06/07 04:08:56;;;;;;;15.43;12.60;;;11.70;99.90;;;;;;5035329;28;20493;-71
2023/06/07 04:11:27;;;;;;;20.13;14.27;;;11.70;99.90;;;;;;5035057;28;20467;-71
2023/06/07 04:13:56;;;;;;;15.87;12.10;;;11.70;99.90;;;;;;5035455;28;20501;-71
2023/06/07 04:16:27;;;;;;;19.47;12.73;;;11.70;99.90;;;;;;5034441;28;20474;-71
2023/06/07 04:18:56;;;;;;;15.67;10.93;;;11.70;99.90;;;;;;5035131;28;20431;-72
2023/06/07 04:21:28;;;;;;;16.30;10.90;;;11.80;99.90;;;;;;5034138;28;21019;-71
2023/06/07 04:23:58;;;;;;;22.37;13.20;;;11.70;99.90;;;;;;5034468;28;20514;-72
2023/06/07 04:26:31;;;;;;;14.80;12.43;;;11.70;99.90;;;;;;5033664;28;20463;-72
2023/06/07 04:28:59;;;;;;;15.10;11.40;;;11.70;99.90;;;;;;5035510;28;20952;-71
2023/06/07 04:31:34;;;;;;;16.00;11.40;;;11.80;99.90;;;;;;5033499;28;21011;-71
2023/06/07 04:34:05;;;;;;;14.90;10.80;;;11.80;99.90;;;;;;5035443;28;20785;-71
2023/06/07 04:36:38;;;;;;;20.70;12.30;;;11.80;99.90;;;;;;5033522;28;20491;-71
2023/06/07 04:39:13;;;;;;;16.93;11.43;;;11.80;99.90;;;;;;5033801;28;20439;-71
2023/06/07 04:41:45;;;;;;;17.03;12.27;;;11.80;99.90;;;;;;5034141;28;20797;-72
2023/06/07 04:44:15;;;;;;;18.43;12.60;;;11.90;99.90;;;;;;5033431;28;20443;-71
2023/06/07 04:46:44;;;;;;;16.67;12.10;;;11.80;99.90;;;;;;5033322;28;20558;-71
2023/06/07 04:49:18;;;;;;;16.90;11.67;;;11.90;99.90;;;;;;5033322;28;20501;-71
2023/06/07 04:51:48;;;;;;;16.97;12.20;;;11.90;99.90;;;;;;5034817;28;20466;-71
2023/06/07 04:54:17;;;;;;;18.50;12.30;;;11.90;99.90;;;;;;5050041;28;20886;-72
2023/06/07 04:56:53;;;;;;;17.00;13.37;;;11.90;99.90;;;;;;5033951;28;20476;-71
2023/06/07 04:59:24;;;;;;;15.83;11.70;;;12.00;99.90;;;;;;5034211;28;20435;-71
2023/06/07 05:01:53;;;;;;;19.77;13.67;;;12.00;99.90;;;;;;5033096;28;20443;-71
2023/06/07 05:04:21;;;;;;;18.80;12.87;;;12.00;99.90;;;;;;5033115;28;20450;-71
2023/06/07 05:06:58;;;;;;;19.80;12.97;;;12.00;99.90;;;;;;5033323;28;20477;-71
2023/06/07 05:09:30;;;;;;;16.20;12.90;;;12.00;99.90;;;;;;5034074;28;20442;-70
2023/06/07 05:12:02;;;;;;;17.83;12.80;;;12.00;99.90;;;;;;5033576;28;20477;-70
2023/06/07 05:14:32;;;;;;;19.73;13.70;;;12.10;99.90;;;;;;5033261;28;20550;-71
2023/06/07 05:17:01;;;;;;;27.27;13.40;;;12.10;99.90;;;;;;5037408;28;20478;-71
2023/06/07 05:19:32;;;;;;;19.00;12.30;;;12.20;99.90;;;;;;5036186;28;20489;-71
2023/06/07 05:22:02;;;;;;;17.20;12.30;;;12.20;99.90;;;;;;5034732;28;20867;-71
2023/06/07 05:24:33;;;;;;;18.20;11.23;;;12.20;99.90;;;;;;5033916;28;20505;-71
2023/06/07 05:27:05;;;;;;;21.83;11.60;;;12.30;99.90;;;;;;5033793;28;20495;-71
2023/06/07 05:29:33;;;;;;;18.10;10.40;;;12.30;99.90;;;;;;5033896;28;20459;-72
2023/06/07 05:32:02;;;;;;;16.10;10.67;;;12.40;99.90;;;;;;5033510;28;20498;-72
2023/06/07 05:34:32;;;;;;;18.33;10.80;;;12.40;99.90;;;;;;5033694;28;20450;-72
2023/06/07 05:37:02;;;;;;;18.37;10.60;;;12.50;99.90;;;;;;5033686;28;20524;-73
2023/06/07 05:39:30;;;;;;;16.63;10.87;;;12.60;99.90;;;;;;5033822;28;20856;-72
2023/06/07 05:41:58;;;;;;;17.67;9.80;;;12.70;99.90;;;;;;5033301;28;20465;-72
2023/06/07 05:44:26;;;;;;;19.37;9.67;;;12.70;99.90;;;;;;5034250;28;20505;-72
2023/06/07 05:46:55;;;;;;;18.63;10.60;;;12.90;99.90;;;;;;5034289;28;20462;-73
2023/06/07 05:49:23;;;;;;;16.67;10.27;;;13.00;99.90;;;;;;5034358;28;20477;-73
2023/06/07 05:51:51;;;;;;;16.77;9.80;;;13.20;99.90;;;;;;5033185;28;20475;-73
2023/06/07 05:54:21;;;;;;;18.30;9.70;;;13.40;99.90;;;;;;5034490;28;20438;-73
2023/06/07 05:56:49;;;;;;;17.17;9.10;;;13.70;99.90;;;;;;5034210;28;20455;-73
2023/06/07 05:59:20;;;;;;;18.47;9.03;;;13.90;99.90;;;;;;5034316;28;20481;-73
2023/06/07 06:01:48;;;;;;;21.27;9.07;;;14.10;99.90;;;;;;5034196;28;20475;-73
2023/06/07 06:04:19;;;;;;;17.40;8.90;;;14.30;99.90;;;;;;5034238;28;20442;-73
2023/06/07 06:06:48;;;;;;;16.50;8.57;;;14.50;99.90;;;;;;5033010;28;20463;-73
2023/06/07 06:09:16;;;;;;;15.23;9.10;;;14.60;99.90;;;;;;5034372;28;20435;-73
2023/06/07 06:11:46;;;;;;;16.10;8.73;;;14.70;99.90;;;;;;5033985;28;20521;-73
2023/06/07 06:14:14;;;;;;;14.10;8.37;;;14.70;99.90;;;;;;5037010;28;20434;-73
2023/06/07 06:16:42;;;;;;;17.93;8.20;;;14.70;99.90;;;;;;5038134;28;20509;-73
2023/06/07 06:19:11;;;;;;;22.77;8.23;;;14.70;99.90;;;;;;5037774;28;20434;-73
2023/06/07 06:21:39;;;;;;;19.10;8.10;;;14.70;99.90;;;;;;5038306;28;20443;-73
2023/06/07 06:24:08;;;;;;;16.20;8.23;;;14.70;99.90;;;;;;5037678;28;20943;-73
2023/06/07 06:26:36;;;;;;;16.40;6.87;;;14.80;99.90;;;;;;5036747;28;20490;-73
2023/06/07 06:29:06;;;;;;;12.07;6.10;;;14.80;99.90;;;;;;5038243;28;20452;-73
2023/06/07 06:31:34;;;;;;;12.70;6.80;;;14.80;99.90;;;;;;5036454;28;20437;-73
2023/06/07 06:34:02;;;;;;;19.40;7.70;;;14.90;99.90;;;;;;5037521;28;20445;-73
2023/06/07 06:36:33;;;;;;;16.10;7.20;;;14.90;99.90;;;;;;5038023;28;20455;-73
2023/06/07 06:39:03;;;;;;;19.00;6.60;;;15.00;99.90;;;;;;5037780;28;20427;-73
2023/06/07 06:41:31;;;;;;;14.47;6.70;;;15.00;99.90;;;;;;5037579;28;20850;-73
2023/06/07 06:44:03;;;;;;;14.23;6.23;;;15.00;99.90;;;;;;5036457;28;20439;-73
2023/06/07 06:46:32;;;;;;;13.93;6.67;;;15.10;99.90;;;;;;5037851;28;20470;-73
2023/06/07 06:49:00;;;;;;;13.43;6.93;;;15.10;99.90;;;;;;5037366;28;20442;-73
2023/06/07 06:51:40;;;;;;;17.00;7.50;;;15.20;99.90;;;;;;5037725;28;20456;-73
2023/06/07 06:54:12;;;;;;;14.70;6.60;;;15.20;99.90;;;;;;5037413;28;20396;-73
2023/06/07 06:56:41;;;;;;;13.77;6.47;;;15.30;99.90;;;;;;5035927;28;20462;-73
2023/06/07 06:59:09;;;;;;;15.30;7.03;;;15.30;99.90;;;;;;5037319;28;20541;-73
2023/06/07 07:01:46;;;;;;;12.83;6.57;;;15.30;99.90;;;;;;5038512;28;20414;-73
2023/06/07 07:04:16;;;;;;;14.03;6.50;;;15.40;99.90;;;;;;5038274;28;20773;-73
2023/06/07 07:06:45;;;;;;;16.43;7.33;;;15.40;99.90;;;;;;5036778;28;20478;-73
2023/06/07 07:09:13;;;;;;;12.27;6.17;;;15.60;99.90;;;;;;5039152;28;20456;-73
2023/06/07 07:11:41;;;;;;;11.47;6.50;;;15.70;99.90;;;;;;5038558;28;20841;-73
2023/06/07 07:14:10;;;;;;;14.83;6.80;;;15.80;99.90;;;;;;5038049;28;20477;-72
2023/06/07 07:16:38;;;;;;;11.27;6.13;;;15.90;99.90;;;;;;5035891;28;20449;-73
2023/06/07 07:19:07;;;;;;;8.97;6.00;;;15.90;99.90;;;;;;5037565;28;20435;-72
2023/06/07 07:21:37;;;;;;;13.90;6.23;;;15.90;99.90;;;;;;5036231;28;20524;-72
2023/06/07 07:24:06;;;;;;;12.57;5.73;;;16.00;99.90;;;;;;5037318;28;20850;-73
2023/06/07 07:26:36;;;;;;;15.13;6.27;;;16.00;99.90;;;;;;5037671;28;20463;-73
2023/06/07 07:29:04;;;;;;;13.67;6.40;;;16.10;99.90;;;;;;5039490;28;20442;-72
2023/06/07 07:31:33;;;;;;;17.80;6.50;;;16.10;99.90;;;;;;5035717;28;20428;-71
2023/06/07 07:34:02;;;;;;;18.17;7.17;;;16.10;99.90;;;;;;5035763;28;20405;-71
2023/06/07 07:36:33;;;;;;;17.80;7.03;;;16.10;99.90;;;;;;5035524;28;20517;-70
2023/06/07 07:39:04;;;;;;;11.27;6.90;;;16.10;99.90;;;;;;5035957;28;20416;-70
2023/06/07 07:41:33;;;;;;;11.83;6.80;;;16.20;99.90;;;;;;5034219;28;20528;-71
2023/06/07 07:44:01;;;;;;;17.23;8.10;;;16.20;99.90;;;;;;5035907;28;20413;-70
2023/06/07 07:46:29;;;;;;;13.60;8.40;;;16.30;99.90;;;;;;5035549;28;20437;-71
2023/06/07 07:48:58;;;;;;;11.70;8.20;;;16.40;99.90;;;;;;5035613;28;20410;-71
2023/06/07 07:51:26;;;;;;;11.90;9.40;;;16.40;99.90;;;;;;5034344;28;20784;-73
2023/06/07 07:53:56;;;;;;;15.67;9.67;;;16.60;99.90;;;;;;5035515;28;20445;-73
2023/06/07 07:56:24;;;;;;;14.40;9.90;;;16.60;99.90;;;;;;5035601;28;20430;-73
2023/06/07 07:58:53;;;;;;;20.23;10.50;;;16.70;99.90;;;;;;5035238;28;20414;-70
2023/06/07 08:01:21;;;;;;;17.70;11.10;;;16.80;99.90;;;;;;5035088;28;20540;-70
2023/06/07 08:03:50;;;;;;;15.10;9.53;;;16.90;99.90;;;;;;5033682;28;20417;-70
2023/06/07 08:06:19;;;;;;;16.63;9.03;;;17.00;99.90;;;;;;5034015;28;20532;-71
2023/06/07 08:08:47;;;;;;;12.90;8.73;;;17.10;99.90;;;;;;5033716;28;20497;-71
2023/06/07 08:11:17;;;;;;;13.40;9.43;;;17.20;99.90;;;;;;5034739;28;20435;-71
2023/06/07 08:13:45;;;;;;;15.13;10.40;;;17.30;99.90;;;;;;5034691;28;20502;-70
2023/06/07 08:16:13;;;;;;;19.13;10.80;;;17.40;99.90;;;;;;5034623;28;20434;-70
2023/06/07 08:18:44;;;;;;;13.43;8.73;;;17.40;99.90;;;;;;5034765;28;20822;-70
2023/06/07 08:21:13;;;;;;;11.70;7.50;;;17.40;99.90;;;;;;5034935;28;20415;-71
2023/06/07 08:23:43;;;;;;;11.93;6.70;;;17.50;99.90;;;;;;5034756;28;20468;-70
2023/06/07 08:26:11;;;;;;;13.90;7.60;;;17.50;99.90;;;;;;5034733;28;20429;-72
2023/06/07 08:28:41;;;;;;;14.73;7.80;;;17.60;99.90;;;;;;5034575;28;20426;-71
2023/06/07 08:31:10;;;;;;;16.30;7.70;;;17.70;99.90;;;;;;5034575;28;20423;-71
2023/06/07 08:33:38;;;;;;;10.93;6.83;;;17.70;99.90;;;;;;5035105;28;20542;-71
2023/06/07 08:36:07;;;;;;;13.03;6.77;;;17.80;99.90;;;;;;5034148;28;20439;-72
2023/06/07 08:38:36;;;;;;;12.60;6.90;;;17.90;99.90;;;;;;5033424;28;20809;-74
2023/06/07 08:41:04;;;;;;;13.63;7.40;;;18.10;99.90;;;;;;5033182;28;20509;-73
2023/06/07 08:43:32;;;;;;;17.20;7.30;;;18.20;99.90;;;;;;5035488;28;20530;-73
2023/06/07 08:46:04;;;;;;;12.60;5.90;;;18.30;99.90;;;;;;5034888;28;20483;-73
2023/06/07 08:48:34;;;;;;;15.00;6.63;;;18.40;99.90;;;;;;5035261;28;20426;-73
2023/06/07 08:51:03;;;;;;;12.43;6.63;;;18.50;99.90;;;;;;5034868;28;20435;-73
2023/06/07 08:53:41;;;;;;;12.50;6.80;;;18.60;99.90;;;;;;5034133;28;20466;-74
2023/06/07 08:56:10;;;;;;;13.03;5.90;;;18.60;99.90;;;;;;5034839;28;20394;-73
2023/06/07 08:58:38;;;;;;;12.03;5.47;;;18.70;99.90;;;;;;5034499;28;20485;-73
2023/06/07 09:01:08;;;;;;;9.20;6.63;;;18.70;99.90;;;;;;5034414;28;20435;-73
2023/06/07 09:03:37;;;;;;;12.30;6.60;;;18.80;99.90;;;;;;5034128;28;20464;-73
2023/06/07 09:06:05;;;;;;;12.47;6.30;;;18.80;99.90;;;;;;5034117;28;20438;-74
2023/06/07 09:08:33;;;;;;;9.87;5.77;;;18.90;99.90;;;;;;5034390;28;20467;-73
2023/06/07 09:11:01;;;;;;;11.23;6.70;;;19.00;99.90;;;;;;5034416;28;20522;-73
2023/06/07 09:13:30;;;;;;;14.20;5.70;;;19.10;99.90;;;;;;5032952;28;20477;-73
2023/06/07 09:16:00;;;;;;;12.43;5.97;;;19.20;99.90;;;;;;5033969;28;20475;-73
2023/06/07 09:18:41;;;;;;;12.77;6.00;;;19.20;99.90;;;;;;5034112;28;20939;-73
2023/06/07 09:21:20;;;;;;;17.30;5.53;;;19.30;99.90;;;;;;5034571;28;20476;-74
2023/06/07 09:23:49;;;;;;;13.10;4.80;;;19.40;99.90;;;;;;5035036;28;20442;-73
2023/06/07 09:26:17;;;;;;;11.30;5.60;;;19.50;99.90;;;;;;5034759;28;20459;-74
2023/06/07 09:28:46;;;;;;;9.73;5.33;;;19.50;99.90;;;;;;5034424;28;20450;-74
2023/06/07 09:31:28;;;;;;;13.10;5.90;;;19.60;99.90;;;;;;5034717;28;20431;-74
2023/06/07 09:33:58;;;;;;;19.43;5.53;;;19.60;99.90;;;;;;5034722;28;20557;-73
2023/06/07 09:36:29;;;;;;;8.33;4.53;;;19.70;99.90;;;;;;5034797;28;20459;-74
2023/06/07 09:38:57;;;;;;;10.57;5.30;;;19.80;99.90;;;;;;5034440;28;20423;-73
2023/06/07 09:41:32;;;;;;;9.80;5.70;;;19.80;99.90;;;;;;5034999;28;20446;-74
2023/06/07 09:44:00;;;;;;;12.80;5.60;;;19.90;99.90;;;;;;5034545;28;20427;-74
2023/06/07 09:46:36;;;;;;;12.73;5.60;;;19.90;99.90;;;;;;5034605;28;20450;-74
2023/06/07 09:49:05;;;;;;;10.20;5.77;;;19.90;99.90;;;;;;5037800;28;20454;-73
2023/06/07 09:51:40;;;;;;;13.30;5.50;;;20.00;99.90;;;;;;5038627;28;20439;-74
2023/06/07 09:54:09;;;;;;;13.03;5.03;;;20.00;99.90;;;;;;5037189;28;20465;-73
2023/06/07 09:56:41;;;;;;;11.03;5.97;;;20.10;99.90;;;;;;5037224;28;20471;-73
2023/06/07 09:59:10;;;;;;;10.30;4.47;;;20.20;99.90;;;;;;5038738;28;20418;-74
2023/06/07 10:01:41;;;;;;;15.13;5.30;;;20.30;99.90;;;;;;5038400;28;20490;-73
2023/06/07 10:04:12;;;;;;;10.20;5.90;;;20.30;99.90;;;;;;5038673;28;20431;-73
2023/06/07 10:06:42;;;;;;;11.23;5.20;;;20.40;99.90;;;;;;5038322;28;20465;-73
2023/06/07 10:09:12;;;;;;;7.90;4.50;;;20.50;99.90;;;;;;5037795;28;20454;-73
2023/06/07 10:11:45;;;;;;;10.73;5.07;;;20.50;99.90;;;;;;5038426;28;20438;-73
2023/06/07 10:14:18;;;;;;;13.50;5.73;;;20.60;99.90;;;;;;5039422;28;20463;-73
2023/06/07 10:16:53;;;;;;;10.23;5.27;;;20.70;99.90;;;;;;5038656;28;20466;-73
2023/06/07 10:19:27;;;;;;;14.90;5.80;;;20.80;99.90;;;;;;5036946;28;20431;-73
2023/06/07 10:21:58;;;;;;;9.60;5.27;;;20.80;99.90;;;;;;5038184;28;20501;-73
2023/06/07 10:24:33;;;;;;;8.20;5.50;;;20.80;99.90;;;;;;5038633;28;20415;-73
2023/06/07 10:27:10;;;;;;;11.70;5.23;;;20.90;99.90;;;;;;5038287;28;20457;-73
2023/06/07 10:29:42;;;;;;;16.50;6.30;;;20.90;99.90;;;;;;5038428;28;20545;-73
2023/06/07 10:32:15;;;;;;;15.13;5.43;;;21.00;99.90;;;;;;5038075;28;20946;-73
2023/06/07 10:34:47;;;;;;;9.90;5.93;;;21.00;99.90;;;;;;5037903;28;20462;-72
2023/06/07 10:37:15;;;;;;;9.70;6.07;;;21.10;99.90;;;;;;5038515;28;20461;-73
2023/06/07 10:39:46;;;;;;;14.00;6.13;;;21.20;99.90;;;;;;5037599;28;20439;-73
2023/06/07 10:42:14;;;;;;;14.80;6.07;;;21.20;99.90;;;;;;5037286;28;20438;-72
2023/06/07 10:44:43;;;;;;;7.80;5.00;;;21.30;99.90;;;;;;5036901;28;20443;-73
2023/06/07 10:47:30;;;;;;;9.70;5.40;;;21.40;99.90;;;;;;5036404;28;20557;-73
2023/06/07 10:50:00;;;;;;;10.60;5.07;;;21.50;99.90;;;;;;5036786;28;20435;-72
2023/06/07 10:52:28;;;;;;;7.80;5.13;;;21.50;99.90;;;;;;5036289;28;20467;-73
2023/06/07 10:54:56;;;;;;;13.57;5.20;;;21.60;99.90;;;;;;5036304;28;20467;-74
2023/06/07 10:57:35;;;;;;;9.50;5.07;;;21.70;99.90;;;;;;5036110;28;21037;-73
2023/06/07 11:00:26;;;;;;;12.13;5.13;;;21.70;99.90;;;;;;5035846;28;20419;-73
2023/06/07 11:03:31;;;;;;;8.93;4.90;;;21.80;99.90;;;;;;5036339;28;20998;-72
2023/06/07 11:06:09;;;;;;;8.50;4.93;;;21.80;99.90;;;;;;5036004;28;20445;-73
2023/06/07 11:08:38;;;;;;;12.20;5.20;;;21.90;99.90;;;;;;5036311;28;20517;-72
2023/06/07 11:11:39;;;;;;;10.93;5.10;;;21.90;99.90;;;;;;5035902;28;21010;-72
2023/06/07 11:14:11;;;;;;;14.80;5.97;;;22.00;99.90;;;;;;5029238;28;20574;-72
2023/06/07 11:16:40;;;;;;;10.47;4.77;;;22.00;99.90;;;;;;5035895;28;20454;-72
2023/06/07 11:19:12;;;;;;;11.17;6.07;;;22.10;99.90;;;;;;5035762;28;20998;-73
2023/06/07 11:22:04;;;;;;;9.47;5.07;;;22.10;99.90;;;;;;5035771;28;20970;-72
2023/06/07 11:24:34;;;;;;;8.03;4.67;;;22.20;99.90;;;;;;5035693;28;20420;-72
2023/06/07 11:27:02;;;;;;;10.80;5.40;;;22.20;99.90;;;;;;5035592;28;20457;-72
2023/06/07 11:29:31;;;;;;;9.43;5.70;;;22.20;99.90;;;;;;5035395;28;20451;-73
2023/06/07 11:32:01;;;;;;;9.40;5.27;;;22.30;99.90;;;;;;5035619;28;20517;-73
2023/06/07 11:34:30;;;;;;;10.57;4.80;;;22.30;99.90;;;;;;5035962;28;20834;-71
2023/06/07 11:37:16;;;;;;;9.00;5.07;;;22.30;99.90;;;;;;5035369;28;20505;-72
2023/06/07 11:39:45;;;;;;;11.40;5.37;;;22.40;99.90;;;;;;5035696;28;20506;-71
2023/06/07 11:42:13;;;;;;;12.20;6.57;;;22.50;99.90;;;;;;5034047;28;20475;-71
2023/06/07 11:44:44;;;;;;;8.13;4.47;;;22.50;99.90;;;;;;5035684;28;20483;-73
2023/06/07 11:47:12;;;;;;;7.73;4.57;;;22.60;99.90;;;;;;5035115;28;20483;-71
2023/06/07 11:49:41;;;;;;;7.80;4.80;;;22.70;99.90;;;;;;5035762;28;20517;-71
2023/06/07 11:52:11;;;;;;;9.17;5.17;;;22.70;99.90;;;;;;5036433;28;20485;-71
2023/06/07 11:54:43;;;;;;;9.10;4.40;;;22.70;99.80;;;;;;5036393;28;20503;-72
2023/06/07 11:57:11;;;;;;;10.70;5.10;;;22.80;99.70;;;;;;5033927;28;20471;-72
2023/06/07 11:59:41;;;;;;;8.93;4.80;;;22.80;99.40;;;;;;5035532;28;20435;-72
2023/06/07 12:02:12;;;;;;;9.40;4.53;;;22.80;99.30;;;;;;5035838;28;20420;-72
2023/06/07 12:04:42;;;;;;;9.37;5.33;;;22.80;99.20;;;;;;5035240;28;20464;-72
2023/06/07 12:07:29;;;;;;;9.30;4.80;;;22.90;99.10;;;;;;5035068;28;20462;-72
2023/06/07 12:09:57;;;;;;;9.20;4.50;;;22.90;99.10;;;;;;5035473;28;20823;-72
2023/06/07 12:12:25;;;;;;;8.97;5.03;;;23.00;99.20;;;;;;5035498;28;21022;-72
2023/06/07 12:15:00;;;;;;;10.83;5.10;;;23.00;99.00;;;;;;5034491;28;21047;-72
2023/06/07 12:17:34;;;;;;;7.70;4.40;;;23.00;98.70;;;;;;5035896;28;20458;-72
2023/06/07 12:20:11;;;;;;;6.70;4.80;;;23.10;98.80;;;;;;5035242;28;20920;-74
2023/06/07 12:22:41;;;;;;;8.63;5.03;;;23.00;98.70;;;;;;5034889;28;20902;-73
2023/06/07 12:25:12;;;;;;;7.60;4.20;;;23.00;98.70;;;;;;5035091;28;20944;-71
2023/06/07 12:27:40;;;;;;;7.20;4.40;;;23.00;98.60;;;;;;5034392;28;21055;-72
2023/06/07 12:30:09;;;;;;;14.07;5.57;;;23.00;98.40;;;;;;5034619;28;20447;-72
2023/06/07 12:32:37;;;;;;;9.70;4.50;;;23.00;98.40;;;;;;5034348;28;20850;-71
2023/06/07 12:35:07;;;;;;;10.90;4.70;;;23.00;98.50;;;;;;5034153;28;20467;-74
2023/06/07 12:37:36;;;;;;;11.23;5.50;;;23.00;98.50;;;;;;5034815;28;20451;-76
2023/06/07 12:40:07;;;;;;;7.17;4.90;;;23.00;98.60;;;;;;5034518;28;20553;-71
2023/06/07 12:42:36;;;;;;;9.73;4.93;;;23.10;98.60;;;;;;5032770;28;20435;-72
2023/06/07 12:45:05;;;;;;;9.70;4.50;;;23.10;98.50;;;;;;5034255;28;20787;-72
2023/06/07 12:47:33;;;;;;;9.80;4.47;;;23.10;98.50;;;;;;5032741;28;20471;-74
2023/06/07 12:50:01;;;;;;;8.03;4.83;;;23.20;98.70;;;;;;5033908;28;20806;-72